createdAt,value
2017-12-29T00:00:18.716Z,70.19
2017-12-29T00:02:47.059Z,70.29
2017-12-29T00:05:15.466Z,71.50
2017-12-29T00:07:43.839Z,70.35
2017-12-29T00:10:12.233Z,71.00
2017-12-29T00:12:40.587Z,72.71
2017-12-29T00:15:08.945Z,70.24
2017-12-29T00:17:37.294Z,72.87
2017-12-29T00:20:05.679Z,70.05
2017-12-29T00:22:34.027Z,70.47
2017-12-29T00:25:02.379Z,70.74
2017-12-29T00:27:30.740Z,70.07
2017-12-29T00:29:59.129Z,70.95
2017-12-29T00:32:27.497Z,71.35
2017-12-29T00:34:55.865Z,71.22
2017-12-29T00:39:58.834Z,68.94
2017-12-29T00:42:27.219Z,69.07
2017-12-29T00:44:55.616Z,70.24
2017-12-29T00:47:24.026Z,70.32
2017-12-29T00:49:52.387Z,70.18
2017-12-29T00:52:20.778Z,73.21
2017-12-29T00:54:49.153Z,70.98
2017-12-29T00:57:17.516Z,71.76
2017-12-29T00:59:45.865Z,70.46
2017-12-29T01:02:14.219Z,69.76
2017-12-29T01:04:42.628Z,68.65
2017-12-29T01:07:10.976Z,70.78
2017-12-29T01:09:39.328Z,69.77
2017-12-29T01:12:07.680Z,69.28
2017-12-29T01:14:36.043Z,70.19
2017-12-29T01:17:04.419Z,72.33
2017-12-29T01:19:32.779Z,72.38
2017-12-29T01:22:01.173Z,71.40
2017-12-29T01:24:29.541Z,69.77
2017-12-29T01:26:57.903Z,70.74
2017-12-29T01:29:26.276Z,68.98
2017-12-29T01:31:54.626Z,71.60
2017-12-29T01:34:22.992Z,69.80
2017-12-29T01:36:51.355Z,71.40
2017-12-29T01:39:19.746Z,72.57
2017-12-29T01:41:48.103Z,72.95
2017-12-29T01:44:16.455Z,75.16
2017-12-29T01:46:44.806Z,72.50
2017-12-29T01:49:13.160Z,69.23
2017-12-29T01:51:49.218Z,69.15
2017-12-29T01:54:17.591Z,70.16
2017-12-29T01:56:45.944Z,69.95
2017-12-29T01:59:14.312Z,69.29
2017-12-29T02:01:42.659Z,68.36
2017-12-29T02:04:11.015Z,70.31
2017-12-29T02:06:39.378Z,70.93
2017-12-29T02:09:07.722Z,69.19
2017-12-29T02:11:36.099Z,70.14
2017-12-29T02:14:04.444Z,69.44
2017-12-29T02:16:32.816Z,69.70
2017-12-29T02:19:01.168Z,73.22
2017-12-29T02:21:29.502Z,70.82
2017-12-29T02:23:57.907Z,71.18
2017-12-29T02:26:26.253Z,72.78
2017-12-29T02:28:54.599Z,69.75
2017-12-29T02:31:22.953Z,72.85
2017-12-29T02:33:51.318Z,69.33
2017-12-29T02:36:19.712Z,70.89
2017-12-29T02:38:48.073Z,69.45
2017-12-29T02:41:16.428Z,72.26
2017-12-29T02:43:44.771Z,71.47
2017-12-29T02:46:13.153Z,73.17
2017-12-29T02:48:41.549Z,70.32
2017-12-29T02:51:09.891Z,72.55
2017-12-29T02:53:38.246Z,72.98
2017-12-29T02:56:06.609Z,72.51
2017-12-29T02:58:34.962Z,72.90
2017-12-29T03:01:03.306Z,71.56
2017-12-29T03:03:31.695Z,74.08
2017-12-29T03:06:00.079Z,73.40
2017-12-29T03:08:28.418Z,71.89
2017-12-29T03:10:56.817Z,71.12
2017-12-29T03:13:25.166Z,72.09
2017-12-29T03:15:53.560Z,73.41
2017-12-29T03:18:21.928Z,74.25
2017-12-29T03:20:50.318Z,71.23
2017-12-29T03:23:18.682Z,69.86
2017-12-29T03:25:47.037Z,72.12
2017-12-29T03:28:15.379Z,73.43
2017-12-29T03:30:43.767Z,73.32
2017-12-29T03:33:12.170Z,71.61
2017-12-29T03:35:40.527Z,73.43
2017-12-29T03:38:08.887Z,72.18
2017-12-29T03:40:37.227Z,73.64
2017-12-29T03:43:05.580Z,74.32
2017-12-29T03:45:33.960Z,72.51
2017-12-29T03:48:02.328Z,72.68
2017-12-29T03:50:30.706Z,71.20
2017-12-29T03:52:59.083Z,72.04
2017-12-29T03:55:27.450Z,71.74
2017-12-29T03:57:55.847Z,71.38
2017-12-29T04:00:36.558Z,71.54
2017-12-29T04:03:04.916Z,72.91
2017-12-29T04:05:33.273Z,72.39
2017-12-29T04:08:01.671Z,70.91
2017-12-29T04:10:30.023Z,73.11
2017-12-29T04:12:58.403Z,70.98
2017-12-29T04:15:26.771Z,71.00
2017-12-29T04:17:56.284Z,70.99
2017-12-29T04:20:24.630Z,69.39
2017-12-29T04:22:52.988Z,69.53
2017-12-29T04:25:21.375Z,71.36
2017-12-29T04:27:49.731Z,72.90
2017-12-29T04:30:18.103Z,73.71
2017-12-29T04:32:46.448Z,72.65
2017-12-29T04:35:14.842Z,72.80
2017-12-29T04:37:43.182Z,72.39
2017-12-29T04:40:11.601Z,71.06
2017-12-29T04:42:39.954Z,72.70
2017-12-29T04:45:08.317Z,71.55
2017-12-29T04:47:36.663Z,70.74
2017-12-29T04:50:05.015Z,72.01
2017-12-29T04:52:33.473Z,72.46
2017-12-29T04:55:01.824Z,72.81
2017-12-29T04:57:30.176Z,72.90
2017-12-29T04:59:58.536Z,72.56
2017-12-29T05:02:26.883Z,69.89
2017-12-29T05:04:55.273Z,70.56
2017-12-29T05:07:23.668Z,71.69
2017-12-29T05:09:52.018Z,71.61
2017-12-29T05:12:20.387Z,71.12
2017-12-29T05:14:48.739Z,73.39
2017-12-29T05:17:17.090Z,72.58
2017-12-29T05:19:45.443Z,72.60
2017-12-29T05:22:13.836Z,71.51
2017-12-29T05:24:42.186Z,74.13
2017-12-29T05:27:10.533Z,73.40
2017-12-29T05:29:38.879Z,72.15
2017-12-29T05:32:07.222Z,72.86
2017-12-29T05:34:35.623Z,72.17
2017-12-29T05:37:03.964Z,71.85
2017-12-29T05:39:32.333Z,73.25
2017-12-29T05:42:00.694Z,72.38
2017-12-29T05:44:29.047Z,72.04
2017-12-29T05:46:57.462Z,71.50
2017-12-29T05:49:25.818Z,71.47
2017-12-29T05:51:54.175Z,72.57
2017-12-29T05:54:22.530Z,72.85
2017-12-29T05:56:50.884Z,74.68
2017-12-29T05:59:19.260Z,72.02
2017-12-29T06:01:47.617Z,74.84
2017-12-29T06:04:15.976Z,75.06
2017-12-29T06:06:44.340Z,72.71
2017-12-29T06:09:12.679Z,74.92
2017-12-29T06:11:41.059Z,74.46
2017-12-29T06:14:09.410Z,73.34
2017-12-29T06:16:37.750Z,72.49
2017-12-29T06:19:06.095Z,74.12
2017-12-29T06:21:34.521Z,73.45
2017-12-29T06:24:02.904Z,74.96
2017-12-29T06:26:31.297Z,74.00
2017-12-29T06:28:59.759Z,73.33
2017-12-29T06:31:28.127Z,71.50
2017-12-29T06:33:56.476Z,72.14
2017-12-29T06:36:24.854Z,70.67
2017-12-29T06:38:53.211Z,72.24
2017-12-29T06:41:21.573Z,72.77
2017-12-29T06:43:49.935Z,72.72
2017-12-29T06:46:18.340Z,73.68
2017-12-29T06:48:46.724Z,72.16
2017-12-29T06:51:15.071Z,71.49
2017-12-29T06:53:43.416Z,72.15
2017-12-29T06:56:11.778Z,71.07
2017-12-29T06:58:40.127Z,72.05
2017-12-29T07:01:08.495Z,71.29
2017-12-29T07:03:36.849Z,71.18
2017-12-29T07:06:05.205Z,71.89
2017-12-29T07:08:33.553Z,70.78
2017-12-29T07:11:01.920Z,71.33
2017-12-29T07:13:30.298Z,70.66
2017-12-29T07:15:58.645Z,70.79
2017-12-29T07:18:26.990Z,70.33
2017-12-29T07:20:55.379Z,71.47
2017-12-29T07:23:23.719Z,71.32
2017-12-29T07:25:52.178Z,69.15
2017-12-29T07:28:20.524Z,69.40
2017-12-29T07:30:49.194Z,69.60
2017-12-29T07:33:17.540Z,69.87
2017-12-29T07:35:45.954Z,70.56
2017-12-29T07:38:14.376Z,70.95
2017-12-29T07:40:42.729Z,68.11
2017-12-29T07:43:11.249Z,70.20
2017-12-29T07:45:39.601Z,71.55
2017-12-29T07:48:07.933Z,70.36
2017-12-29T07:50:36.332Z,69.91
2017-12-29T07:53:04.727Z,71.63
2017-12-29T07:55:33.320Z,71.13
2017-12-29T07:58:01.764Z,71.19
2017-12-29T08:00:30.103Z,70.64
2017-12-29T08:02:58.522Z,72.19
2017-12-29T08:05:26.901Z,71.50
2017-12-29T08:07:55.256Z,72.61
2017-12-29T08:10:23.660Z,71.33
2017-12-29T08:12:52.006Z,70.39
2017-12-29T08:15:20.362Z,71.76
2017-12-29T08:17:48.706Z,71.54
2017-12-29T08:20:17.051Z,72.12
2017-12-29T08:22:45.415Z,72.20
2017-12-29T08:25:13.830Z,71.58
2017-12-29T08:27:42.177Z,71.88
2017-12-29T08:30:10.536Z,73.26
2017-12-29T08:32:38.875Z,71.46
2017-12-29T08:35:07.206Z,71.33
2017-12-29T08:37:35.580Z,71.06
2017-12-29T08:40:03.962Z,71.69
2017-12-29T08:42:32.313Z,71.15
2017-12-29T08:45:00.663Z,70.33
2017-12-29T08:47:29.029Z,71.36
2017-12-29T08:49:57.371Z,71.76
2017-12-29T08:52:25.803Z,72.71
2017-12-29T08:54:54.180Z,72.41
2017-12-29T08:57:22.511Z,73.02
2017-12-29T08:59:50.860Z,69.34
2017-12-29T09:02:19.339Z,70.54
2017-12-29T09:04:47.716Z,69.09
2017-12-29T09:07:16.079Z,68.89
2017-12-29T09:09:44.422Z,67.21
2017-12-29T09:12:12.788Z,68.85
2017-12-29T09:14:42.082Z,69.43
2017-12-29T09:17:10.451Z,68.38
2017-12-29T09:19:38.792Z,67.19
2017-12-29T09:22:07.146Z,66.62
2017-12-29T09:24:35.520Z,67.17
2017-12-29T09:27:03.887Z,68.42
2017-12-29T09:29:32.245Z,68.27
2017-12-29T09:32:00.584Z,68.22
2017-12-29T09:34:28.927Z,69.62
2017-12-29T09:36:57.321Z,69.92
2017-12-29T09:39:25.708Z,69.93
2017-12-29T09:41:54.059Z,68.18
2017-12-29T09:44:22.422Z,68.90
2017-12-29T09:46:50.754Z,69.91
2017-12-29T09:49:19.184Z,69.80
2017-12-29T09:51:47.547Z,71.75
2017-12-29T09:54:16.860Z,70.44
2017-12-29T09:56:45.227Z,71.08
2017-12-29T09:59:13.608Z,71.95
2017-12-29T10:01:41.990Z,69.58
2017-12-29T10:04:10.382Z,70.89
2017-12-29T10:06:38.732Z,69.71
2017-12-29T10:09:07.070Z,67.50
2017-12-29T10:11:35.410Z,67.17
2017-12-29T10:14:03.789Z,64.12
2017-12-29T10:16:32.171Z,61.00
2017-12-29T10:19:00.630Z,60.39
2017-12-29T10:21:28.972Z,59.85
2017-12-29T10:23:57.383Z,61.72
2017-12-29T10:26:25.753Z,62.44
2017-12-29T10:28:54.098Z,64.77
2017-12-29T10:31:22.502Z,65.24
2017-12-29T10:33:50.867Z,65.87
2017-12-29T10:36:19.238Z,66.19
2017-12-29T10:38:47.572Z,68.18
2017-12-29T10:41:15.917Z,67.44
2017-12-29T10:43:44.314Z,67.44
2017-12-29T10:46:12.673Z,68.23
2017-12-29T10:48:41.017Z,68.80
2017-12-29T10:51:09.378Z,68.19
2017-12-29T10:53:38.675Z,67.60
2017-12-29T10:56:07.052Z,69.75
2017-12-29T10:58:35.459Z,71.33
2017-12-29T11:01:03.824Z,70.23
2017-12-29T11:03:32.170Z,70.82
2017-12-29T11:06:00.519Z,71.59
2017-12-29T11:08:28.911Z,70.05
2017-12-29T11:10:57.258Z,71.14
2017-12-29T11:13:25.630Z,71.56
2017-12-29T11:15:53.971Z,69.44
2017-12-29T11:18:22.352Z,70.47
2017-12-29T11:20:50.784Z,70.60
2017-12-29T11:23:19.174Z,70.25
2017-12-29T11:25:47.531Z,70.67
2017-12-29T11:28:15.862Z,71.35
2017-12-29T11:30:44.274Z,70.65
2017-12-29T11:33:12.728Z,70.46
2017-12-29T11:35:41.105Z,70.96
2017-12-29T11:38:09.470Z,70.75
2017-12-29T11:40:37.807Z,70.55
2017-12-29T11:43:06.175Z,69.95
2017-12-29T11:45:34.541Z,68.98
2017-12-29T11:48:02.906Z,71.28
2017-12-29T11:50:31.257Z,69.41
2017-12-29T11:52:59.609Z,67.94
2017-12-29T11:55:27.980Z,68.58
2017-12-29T11:57:56.338Z,67.12
2017-12-29T12:00:24.722Z,66.74
2017-12-29T12:02:53.068Z,67.63
2017-12-29T12:05:22.370Z,68.78
2017-12-29T12:07:50.731Z,67.10
2017-12-29T12:10:19.115Z,68.12
2017-12-29T12:12:47.459Z,67.61
2017-12-29T12:15:15.797Z,67.07
2017-12-29T12:17:44.143Z,65.72
2017-12-29T12:20:12.486Z,66.62
2017-12-29T12:22:40.902Z,66.15
2017-12-29T12:25:09.252Z,66.04
2017-12-29T12:27:37.616Z,64.70
2017-12-29T12:30:05.965Z,65.41
2017-12-29T12:35:08.807Z,64.06
2017-12-29T12:37:37.157Z,65.13
2017-12-29T12:40:05.505Z,66.36
2017-12-29T12:42:33.850Z,64.80
2017-12-29T12:45:02.205Z,62.96
2017-12-29T12:47:30.584Z,64.00
2017-12-29T12:49:58.948Z,65.36
2017-12-29T12:52:27.301Z,64.61
2017-12-29T12:54:55.655Z,64.21
2017-12-29T12:57:24.012Z,65.32
2017-12-29T12:59:52.420Z,65.24
2017-12-29T13:02:20.764Z,64.58
2017-12-29T13:04:49.104Z,65.96
2017-12-29T13:07:17.491Z,64.32
2017-12-29T13:09:45.832Z,62.68
2017-12-29T13:12:14.214Z,63.29
2017-12-29T13:14:42.564Z,64.07
2017-12-29T13:17:10.927Z,61.92
2017-12-29T13:19:39.293Z,62.97
2017-12-29T13:22:07.639Z,62.55
2017-12-29T13:24:36.006Z,65.08
2017-12-29T13:27:04.374Z,66.04
2017-12-29T13:29:32.758Z,64.55
2017-12-29T13:32:01.225Z,64.93
2017-12-29T13:34:29.703Z,65.21
2017-12-29T13:36:58.091Z,65.57
2017-12-29T13:39:26.432Z,67.29
2017-12-29T13:41:54.814Z,68.50
2017-12-29T13:44:23.183Z,66.60
2017-12-29T13:46:51.528Z,64.15
2017-12-29T13:49:19.923Z,68.08
2017-12-29T13:51:48.281Z,66.53
2017-12-29T13:54:16.657Z,69.15
2017-12-29T13:56:45.013Z,64.62
2017-12-29T13:59:13.346Z,64.94
2017-12-29T14:01:41.695Z,69.30
2017-12-29T14:04:10.046Z,69.07
2017-12-29T14:06:38.423Z,66.75
2017-12-29T14:09:06.773Z,67.80
2017-12-29T14:11:35.126Z,67.33
2017-12-29T14:14:03.473Z,64.03
2017-12-29T14:16:31.824Z,68.25
2017-12-29T14:19:00.292Z,65.92
2017-12-29T14:21:28.625Z,68.45
2017-12-29T14:23:57.028Z,65.20
2017-12-29T14:26:25.400Z,65.37
2017-12-29T14:28:53.742Z,67.39
2017-12-29T14:31:22.112Z,67.79
2017-12-29T14:33:50.447Z,64.65
2017-12-29T14:36:18.825Z,69.02
2017-12-29T14:38:47.186Z,66.17
2017-12-29T14:41:15.549Z,67.24
2017-12-29T14:43:43.901Z,66.18
2017-12-29T14:46:12.259Z,65.61
2017-12-29T14:48:40.626Z,67.49
2017-12-29T14:51:08.969Z,66.88
2017-12-29T14:53:37.302Z,66.53
2017-12-29T14:56:05.655Z,67.31
2017-12-29T14:58:34.008Z,64.80
2017-12-29T15:01:02.393Z,70.78
2017-12-29T15:03:30.746Z,68.76
2017-12-29T15:05:59.081Z,70.68
2017-12-29T15:08:27.423Z,68.58
2017-12-29T15:10:55.786Z,68.09
2017-12-29T15:13:24.163Z,64.78
2017-12-29T15:15:52.510Z,66.85
2017-12-29T15:18:20.969Z,68.28
2017-12-29T15:20:49.316Z,70.47
2017-12-29T15:23:17.679Z,69.97
2017-12-29T15:25:46.023Z,69.37
2017-12-29T15:28:14.375Z,69.15
2017-12-29T15:30:43.660Z,67.33
2017-12-29T15:33:12.024Z,67.22
2017-12-29T15:35:40.379Z,68.44
2017-12-29T15:38:08.726Z,70.31
2017-12-29T15:40:37.070Z,67.42
2017-12-29T15:43:05.461Z,66.78
2017-12-29T15:45:33.796Z,69.46
2017-12-29T15:48:02.137Z,68.33
2017-12-29T15:50:30.479Z,69.01
2017-12-29T15:52:58.828Z,70.83
2017-12-29T15:55:27.206Z,70.20
2017-12-29T15:57:55.574Z,72.01
2017-12-29T16:00:23.944Z,73.17
2017-12-29T16:02:52.300Z,72.44
2017-12-29T16:05:20.655Z,72.67
2017-12-29T16:07:49.046Z,73.40
2017-12-29T16:10:17.405Z,74.22
2017-12-29T16:12:45.753Z,73.34
2017-12-29T16:15:14.105Z,75.20
2017-12-29T16:17:42.455Z,74.13
2017-12-29T16:20:10.855Z,76.74
2017-12-29T16:22:39.200Z,77.63
2017-12-29T16:25:07.547Z,77.89
2017-12-29T16:27:35.926Z,79.07
2017-12-29T16:30:04.271Z,78.48
2017-12-29T16:32:32.683Z,79.70
2017-12-29T16:35:01.033Z,80.76
2017-12-29T16:37:29.385Z,79.91
2017-12-29T16:39:57.756Z,78.32
2017-12-29T16:42:26.119Z,78.78
2017-12-29T16:44:54.491Z,77.01
2017-12-29T16:47:22.841Z,76.37
2017-12-29T16:49:51.174Z,77.90
2017-12-29T16:52:19.560Z,76.92
2017-12-29T16:54:47.921Z,76.48
2017-12-29T16:57:16.286Z,77.12
2017-12-29T16:59:44.626Z,78.70
2017-12-29T17:02:12.961Z,77.80
2017-12-29T17:04:41.316Z,76.63
2017-12-29T17:07:09.655Z,75.39
2017-12-29T17:09:38.024Z,77.94
2017-12-29T17:12:06.375Z,75.11
2017-12-29T17:14:34.723Z,73.22
2017-12-29T17:17:03.082Z,74.02
2017-12-29T17:19:31.434Z,75.93
2017-12-29T17:21:59.835Z,75.59
2017-12-29T17:24:28.180Z,75.06
2017-12-29T17:26:56.527Z,72.93
2017-12-29T17:29:24.933Z,74.81
2017-12-29T17:31:53.291Z,74.49
2017-12-29T17:34:21.686Z,72.17
2017-12-29T17:36:50.039Z,74.00
2017-12-29T17:39:18.379Z,72.48
2017-12-29T17:41:46.754Z,74.23
2017-12-29T17:44:15.114Z,73.22
2017-12-29T17:46:43.511Z,73.65
2017-12-29T17:49:11.908Z,73.32
2017-12-29T17:51:40.257Z,74.37
2017-12-29T17:54:08.603Z,73.98
2017-12-29T17:56:36.965Z,75.19
2017-12-29T17:59:05.345Z,71.84
2017-12-29T18:01:33.696Z,72.31
2017-12-29T18:04:02.088Z,72.52
2017-12-29T18:06:30.496Z,76.31
2017-12-29T18:08:58.885Z,76.16
2017-12-29T18:11:27.238Z,74.21
2017-12-29T18:13:55.605Z,75.60
2017-12-29T18:16:24.077Z,74.67
2017-12-29T18:18:52.448Z,71.99
2017-12-29T18:21:20.876Z,72.53
2017-12-29T18:23:49.286Z,73.94
2017-12-29T18:26:17.638Z,74.10
2017-12-29T18:28:46.024Z,76.38
2017-12-29T18:31:14.396Z,73.68
2017-12-29T18:33:42.803Z,75.66
2017-12-29T18:36:11.165Z,77.81
2017-12-29T18:38:39.528Z,76.91
2017-12-29T18:41:07.909Z,75.54
2017-12-29T18:43:36.264Z,75.18
2017-12-29T18:46:04.677Z,75.35
2017-12-29T18:48:33.040Z,76.34
2017-12-29T18:51:01.433Z,78.85
2017-12-29T18:53:29.774Z,78.16
2017-12-29T18:55:58.126Z,77.50
2017-12-29T18:58:26.506Z,77.97
2017-12-29T19:00:55.078Z,76.40
2017-12-29T19:03:23.843Z,75.10
2017-12-29T19:05:52.226Z,76.24
2017-12-29T19:08:20.574Z,73.66
2017-12-29T19:10:48.982Z,73.56
2017-12-29T19:13:17.372Z,75.71
2017-12-29T19:15:45.713Z,76.57
2017-12-29T19:18:14.046Z,77.13
2017-12-29T19:20:42.419Z,77.52
2017-12-29T19:23:10.804Z,77.16
2017-12-29T19:25:39.158Z,75.30
2017-12-29T19:28:07.503Z,78.29
2017-12-29T19:30:35.861Z,74.14
2017-12-29T19:33:04.215Z,73.98
2017-12-29T19:35:32.598Z,74.37
2017-12-29T19:38:02.878Z,72.59
2017-12-29T19:40:34.815Z,74.54
2017-12-29T19:43:03.261Z,73.29
2017-12-29T19:45:31.622Z,71.97
2017-12-29T19:47:59.961Z,69.44
2017-12-29T19:50:28.322Z,74.98
2017-12-29T19:52:56.733Z,72.63
2017-12-29T19:55:25.097Z,73.73
2017-12-29T19:57:53.452Z,74.09
2017-12-29T20:00:21.834Z,72.67
2017-12-29T20:02:50.344Z,73.26
2017-12-29T20:05:18.812Z,71.27
2017-12-29T20:07:47.168Z,71.91
2017-12-29T20:10:15.524Z,71.25
2017-12-29T20:12:43.867Z,69.60
2017-12-29T20:15:12.208Z,69.68
2017-12-29T20:17:40.611Z,67.16
2017-12-29T20:20:08.980Z,68.98
2017-12-29T20:22:37.332Z,68.63
2017-12-29T20:25:05.675Z,69.91
2017-12-29T20:27:34.023Z,69.72
2017-12-29T20:30:02.499Z,67.14
2017-12-29T20:32:30.851Z,67.19
2017-12-29T20:34:59.217Z,69.37
2017-12-29T20:37:27.627Z,69.92
2017-12-29T20:39:55.974Z,71.62
2017-12-29T20:42:24.354Z,71.95
2017-12-29T20:44:52.747Z,69.70
2017-12-29T20:47:21.137Z,69.03
2017-12-29T20:49:49.499Z,68.71
2017-12-29T20:52:17.848Z,68.47
2017-12-29T20:54:46.294Z,68.93
2017-12-29T20:57:14.638Z,70.82
2017-12-29T20:59:42.996Z,69.07
2017-12-29T21:02:11.360Z,68.28
2017-12-29T21:04:39.704Z,67.18
2017-12-29T21:07:08.100Z,69.34
2017-12-29T21:09:36.507Z,69.15
2017-12-29T21:12:04.923Z,68.00
2017-12-29T21:14:33.313Z,68.44
2017-12-29T21:17:01.662Z,69.98
2017-12-29T21:19:30.079Z,68.40
2017-12-29T21:21:58.615Z,67.60
2017-12-29T21:24:26.975Z,67.60
2017-12-29T21:26:55.327Z,66.06
2017-12-29T21:29:23.766Z,66.59
2017-12-29T21:31:52.101Z,65.82
2017-12-29T21:34:20.538Z,66.34
2017-12-29T21:36:49.113Z,65.63
2017-12-29T21:39:17.547Z,64.44
2017-12-29T21:41:45.888Z,64.21
2017-12-29T21:44:14.263Z,66.35
2017-12-29T21:46:42.665Z,65.97
2017-12-29T21:49:11.014Z,67.53
2017-12-29T21:51:39.389Z,68.29
2017-12-29T21:54:07.746Z,70.61
2017-12-29T21:56:36.100Z,71.90
2017-12-29T21:59:04.479Z,71.99
2017-12-29T22:01:32.878Z,71.77
2017-12-29T22:04:01.287Z,75.28
2017-12-29T22:06:29.638Z,73.43
2017-12-29T22:08:58.025Z,74.84
2017-12-29T22:11:26.399Z,75.51
2017-12-29T22:13:54.804Z,74.95
2017-12-29T22:16:23.269Z,73.04
2017-12-29T22:18:51.663Z,74.98
2017-12-29T22:21:20.007Z,76.87
2017-12-29T22:23:48.350Z,76.50
2017-12-29T22:26:16.714Z,75.36
2017-12-29T22:28:45.056Z,77.07
2017-12-29T22:31:13.460Z,78.77
2017-12-29T22:33:41.813Z,77.27
2017-12-29T22:36:10.155Z,79.08
2017-12-29T22:38:38.507Z,79.01
2017-12-29T22:41:06.856Z,81.40
2017-12-29T22:43:35.255Z,79.66
2017-12-29T22:46:03.691Z,81.03
2017-12-29T22:48:32.023Z,80.05
2017-12-29T22:51:00.369Z,79.56
2017-12-29T22:53:28.715Z,81.32
2017-12-29T22:55:57.108Z,83.24
2017-12-29T22:58:25.460Z,83.50
2017-12-29T23:00:53.828Z,82.16
2017-12-29T23:03:22.220Z,82.01
2017-12-29T23:05:50.612Z,82.95
2017-12-29T23:08:18.967Z,81.78
2017-12-29T23:10:48.379Z,82.36
2017-12-29T23:13:16.737Z,83.18
2017-12-29T23:15:45.116Z,82.76
2017-12-29T23:18:13.494Z,81.26
2017-12-29T23:20:41.894Z,82.39
2017-12-29T23:23:10.255Z,79.98
2017-12-29T23:25:38.629Z,80.54
2017-12-29T23:28:06.993Z,81.54
2017-12-29T23:30:35.369Z,81.06
2017-12-29T23:33:03.755Z,79.28
2017-12-29T23:35:32.124Z,81.08
2017-12-29T23:38:00.525Z,80.29
2017-12-29T23:40:28.886Z,79.32
2017-12-29T23:42:57.258Z,77.85
2017-12-29T23:45:25.637Z,79.10
2017-12-29T23:47:54.024Z,78.10
2017-12-29T23:50:22.405Z,80.34
2017-12-29T23:52:50.769Z,78.92
2017-12-29T23:55:19.134Z,79.26
2017-12-29T23:57:47.539Z,77.56
